createdAt,value
2024-02-08T00:01:52.609Z,62.47
2024-02-08T00:05:30.678Z,62.70
2024-02-08T00:09:21.042Z,62.69
2024-02-08T00:13:04.004Z,63.06
2024-02-08T00:17:02.177Z,62.56
2024-02-08T00:21:18.308Z,63.31
2024-02-08T00:29:11.523Z,63.17
2024-02-08T00:32:52.994Z,62.59
2024-02-08T00:40:58.735Z,62.85
2024-02-08T00:44:57.065Z,62.85
2024-02-08T00:48:58.855Z,63.08
2024-02-08T00:53:04.339Z,63.19
2024-02-08T00:56:31.880Z,63.52
2024-02-08T00:59:40.376Z,63.18
2024-02-08T01:02:48.203Z,62.86
2024-02-08T01:05:57.573Z,62.99
2024-02-08T01:09:59.517Z,63.35
2024-02-08T01:14:25.790Z,62.51
2024-02-08T01:18:47.104Z,62.38
2024-02-08T01:31:17.028Z,61.43
2024-02-08T01:35:39.933Z,61.13
2024-02-08T01:39:49.935Z,61.33
2024-02-08T01:52:17.243Z,61.54
2024-02-08T02:01:22.811Z,61.42
2024-02-08T02:09:27.413Z,61.46
2024-02-08T02:12:35.845Z,61.04
2024-02-08T02:15:47.875Z,61.58
2024-02-08T02:18:55.722Z,61.15
2024-02-08T02:22:09.121Z,61.66
2024-02-08T02:25:18.144Z,60.69
2024-02-08T02:28:26.734Z,61.20
2024-02-08T02:31:35.932Z,61.35
2024-02-08T02:34:49.369Z,61.86
2024-02-08T02:38:04.372Z,61.52
2024-02-08T02:41:33.564Z,61.01
2024-02-08T02:50:02.524Z,61.01
2024-02-08T03:03:13.013Z,61.11
2024-02-08T03:07:45.143Z,61.75
2024-02-08T03:11:07.119Z,61.08
2024-02-08T03:14:16.777Z,60.79
2024-02-08T03:17:24.960Z,60.92
2024-02-08T03:20:33.995Z,60.68
2024-02-08T03:23:44.750Z,60.73
2024-02-08T03:35:45.273Z,60.35
2024-02-08T03:40:17.009Z,60.19
2024-02-08T03:49:20.162Z,60.15
2024-02-08T03:57:40.104Z,59.29
2024-02-08T04:01:30.645Z,59.53
2024-02-08T04:06:09.823Z,60.09
2024-02-08T04:14:32.189Z,59.91
2024-02-08T04:19:05.255Z,59.57
2024-02-08T04:23:37.175Z,60.17
2024-02-08T04:31:48.116Z,60.02
2024-02-08T04:36:06.853Z,59.95
2024-02-08T04:40:05.150Z,59.50
2024-02-08T04:44:08.355Z,59.83
2024-02-08T04:48:11.516Z,60.26
2024-02-08T04:55:34.899Z,59.87
2024-02-08T05:00:15.463Z,59.97
2024-02-08T05:11:46.613Z,59.60
2024-02-08T05:14:54.205Z,60.03
2024-02-08T05:18:03.058Z,59.65
2024-02-08T05:21:14.628Z,59.57
2024-02-08T05:24:23.039Z,59.61
2024-02-08T05:28:38.672Z,59.38
2024-02-08T05:32:25.381Z,59.67
2024-02-08T05:36:11.265Z,59.57
2024-02-08T05:40:22.531Z,59.92
2024-02-08T05:43:44.176Z,60.17
2024-02-08T05:47:14.462Z,60.06
2024-02-08T05:50:42.955Z,60.19
2024-02-08T05:54:45.259Z,60.31
2024-02-08T05:58:49.227Z,60.88
2024-02-08T06:06:18.837Z,60.42
2024-02-08T06:10:10.091Z,59.82
2024-02-08T06:13:30.895Z,59.61
2024-02-08T06:17:16.589Z,59.63
2024-02-08T06:20:43.097Z,59.21
2024-02-08T06:24:52.029Z,59.75
2024-02-08T06:28:41.514Z,59.50
2024-02-08T06:32:11.134Z,59.24
2024-02-08T06:35:50.682Z,59.01
2024-02-08T06:39:22.736Z,58.89
2024-02-08T06:43:22.377Z,59.10
2024-02-08T06:46:58.704Z,58.55
2024-02-08T06:50:27.804Z,59.12
2024-02-08T06:54:06.919Z,58.54
2024-02-08T06:57:32.753Z,57.83
2024-02-08T07:01:01.141Z,57.93
2024-02-08T07:08:41.505Z,58.31
2024-02-08T07:12:17.469Z,58.04
2024-02-08T07:15:55.183Z,58.10
2024-02-08T07:19:35.686Z,57.70
2024-02-08T07:23:08.922Z,57.54
2024-02-08T07:26:33.900Z,56.85
2024-02-08T07:30:22.106Z,57.46
2024-02-08T07:33:44.367Z,57.45
2024-02-08T07:37:28.180Z,57.21
2024-02-08T07:40:39.319Z,57.59
2024-02-08T07:43:57.038Z,57.42
2024-02-08T07:47:17.765Z,57.49
2024-02-08T07:50:39.078Z,57.55
2024-02-08T07:53:55.924Z,56.80
2024-02-08T07:57:13.118Z,56.08
2024-02-08T08:00:34.305Z,55.96
2024-02-08T08:03:45.591Z,56.14
2024-02-08T08:07:02.443Z,56.04
2024-02-08T08:10:27.956Z,55.82
2024-02-08T08:13:53.278Z,55.66
2024-02-08T08:17:33.400Z,56.14
2024-02-08T08:21:01.333Z,55.34
2024-02-08T08:24:27.276Z,54.96
2024-02-08T08:27:54.969Z,53.82
2024-02-08T08:31:18.815Z,54.20
2024-02-08T08:34:38.878Z,54.14
2024-02-08T08:38:17.630Z,53.99
2024-02-08T08:41:34.074Z,54.40
2024-02-08T08:44:58.986Z,54.32
2024-02-08T08:48:14.942Z,54.08
2024-02-08T08:51:41.142Z,54.14
2024-02-08T08:55:15.879Z,53.46
2024-02-08T08:58:52.766Z,53.59
2024-02-08T09:02:31.583Z,53.46
2024-02-08T09:10:09.339Z,53.09
2024-02-08T09:17:27.145Z,53.48
2024-02-08T09:21:15.244Z,53.62
2024-02-08T09:24:31.098Z,53.95
2024-02-08T09:27:48.876Z,53.12
2024-02-08T09:31:18.732Z,52.21
2024-02-08T09:34:46.033Z,52.06
2024-02-08T09:38:20.752Z,52.73
2024-02-08T09:41:52.679Z,51.67
2024-02-08T09:49:15.263Z,52.41
2024-02-08T09:52:55.771Z,52.54
2024-02-08T09:56:27.192Z,51.24
2024-02-08T10:00:04.916Z,51.38
2024-02-08T10:03:33.833Z,52.19
2024-02-08T10:11:25.983Z,52.73
2024-02-08T10:14:58.970Z,51.72
2024-02-08T10:18:25.363Z,50.55
2024-02-08T10:21:56.520Z,51.15
2024-02-08T10:29:26.850Z,51.11
2024-02-08T10:32:41.161Z,51.02
2024-02-08T10:35:50.354Z,50.41
2024-02-08T10:39:10.110Z,50.15
2024-02-08T10:42:25.301Z,49.96
2024-02-08T10:45:50.836Z,49.40
2024-02-08T10:49:10.992Z,49.29
2024-02-08T10:52:25.167Z,48.77
2024-02-08T10:55:41.689Z,48.25
2024-02-08T10:58:57.863Z,48.85
2024-02-08T11:02:31.104Z,48.83
2024-02-08T11:06:02.829Z,49.25
2024-02-08T11:09:27.521Z,49.02
2024-02-08T11:12:42.676Z,48.20
2024-02-08T11:15:58.121Z,48.72
2024-02-08T11:19:11.049Z,48.28
2024-02-08T11:22:39.274Z,47.74
2024-02-08T11:25:58.609Z,47.89
2024-02-08T11:29:20.507Z,47.82
2024-02-08T11:32:33.395Z,47.75
2024-02-08T11:35:55.921Z,48.13
2024-02-08T11:39:33.304Z,47.32
2024-02-08T11:42:54.923Z,47.80
2024-02-08T11:46:08.174Z,48.17
2024-02-08T11:49:36.008Z,47.83
2024-02-08T11:56:20.556Z,48.35
2024-02-08T11:59:33.391Z,48.72
2024-02-08T12:02:59.304Z,48.72
2024-02-08T12:06:09.167Z,48.52
2024-02-08T12:09:35.649Z,49.27
2024-02-08T12:12:48.015Z,48.73
2024-02-08T12:15:58.913Z,49.46
2024-02-08T12:19:17.039Z,49.77
2024-02-08T12:22:25.753Z,50.18
2024-02-08T12:25:47.109Z,49.85
2024-02-08T12:29:02.998Z,50.39
2024-02-08T12:32:18.389Z,50.45
2024-02-08T12:35:30.216Z,51.06
2024-02-08T12:38:48.746Z,51.14
2024-02-08T12:42:02.351Z,52.11
2024-02-08T12:45:18.987Z,51.63
2024-02-08T12:48:31.093Z,52.07
2024-02-08T12:51:42.913Z,51.70
2024-02-08T12:55:02.273Z,52.51
2024-02-08T12:58:25.649Z,52.24
2024-02-08T13:01:46.216Z,52.72
2024-02-08T13:05:03.137Z,52.95
2024-02-08T13:08:13.578Z,53.03
2024-02-08T13:11:26.940Z,53.33
2024-02-08T13:14:40.166Z,53.11
2024-02-08T13:17:49.742Z,53.63
2024-02-08T13:20:57.207Z,54.20
2024-02-08T13:24:09.022Z,54.11
2024-02-08T13:27:26.292Z,54.38
2024-02-08T13:30:41.846Z,54.50
2024-02-08T13:33:49.529Z,54.91
2024-02-08T13:37:03.487Z,55.33
2024-02-08T13:40:13.521Z,55.52
2024-02-08T13:43:25.980Z,55.75
2024-02-08T13:46:47.866Z,55.14
2024-02-08T13:49:59.143Z,55.54
2024-02-08T13:53:20.940Z,55.65
2024-02-08T13:56:51.956Z,55.91
2024-02-08T14:00:22.622Z,56.54
2024-02-08T14:03:47.189Z,56.63
2024-02-08T14:07:01.778Z,56.56
2024-02-08T14:10:16.367Z,56.82
2024-02-08T14:13:41.039Z,56.19
2024-02-08T14:16:53.786Z,56.40
2024-02-08T14:20:36.169Z,56.22
2024-02-08T14:24:01.986Z,56.21
2024-02-08T14:27:21.233Z,56.01
2024-02-08T14:30:35.843Z,56.24
2024-02-08T14:42:26.721Z,56.37
2024-02-08T14:46:32.108Z,56.53
2024-02-08T14:51:41.514Z,56.55
2024-02-08T14:56:05.097Z,56.86
2024-02-08T15:00:31.021Z,56.75
2024-02-08T15:04:03.094Z,56.78
2024-02-08T15:08:13.205Z,56.97
2024-02-08T15:11:40.251Z,57.08
2024-02-08T15:15:05.706Z,57.19
2024-02-08T15:18:43.560Z,57.12
2024-02-08T15:22:21.137Z,57.33
2024-02-08T15:25:55.187Z,57.30
2024-02-08T15:29:14.244Z,57.18
2024-02-08T15:32:51.661Z,57.41
2024-02-08T15:36:12.478Z,57.56
2024-02-08T15:54:23.092Z,57.53
2024-02-08T16:09:57.516Z,57.96
2024-02-08T16:27:51.881Z,58.39
2024-02-08T16:32:20.638Z,58.82
2024-02-08T16:41:59.379Z,59.67
2024-02-08T17:09:58.135Z,59.94
2024-02-08T17:14:08.706Z,59.48
2024-02-08T17:24:32.377Z,59.72
2024-02-08T17:32:36.997Z,59.64
2024-02-08T17:36:59.880Z,59.48
2024-02-08T17:46:32.389Z,59.47
2024-02-08T17:51:39.953Z,59.13
2024-02-08T18:06:34.469Z,59.51
2024-02-08T18:11:31.652Z,59.45
2024-02-08T18:16:24.849Z,59.14
2024-02-08T18:19:57.094Z,59.27
2024-02-08T18:24:31.675Z,59.17
2024-02-08T18:29:07.681Z,59.19
2024-02-08T18:32:50.867Z,59.58
2024-02-08T18:42:27.491Z,59.28
2024-02-08T18:46:22.597Z,59.75
2024-02-08T18:50:26.592Z,59.17
2024-02-08T18:53:51.513Z,59.28
2024-02-08T18:58:08.029Z,59.55
2024-02-08T19:02:01.040Z,59.50
2024-02-08T19:07:32.875Z,59.76
2024-02-08T19:11:35.765Z,59.80
2024-02-08T19:19:55.121Z,59.70
2024-02-08T19:23:49.887Z,59.41
2024-02-08T19:32:37.013Z,59.40
2024-02-08T19:36:58.188Z,59.80
2024-02-08T19:45:56.498Z,59.69
2024-02-08T19:50:04.913Z,59.73
2024-02-08T19:53:56.388Z,59.44
2024-02-08T19:57:43.398Z,59.60
2024-02-08T20:01:18.318Z,59.27
2024-02-08T20:05:00.826Z,59.46
2024-02-08T20:08:23.606Z,59.29
2024-02-08T20:12:00.206Z,59.26
2024-02-08T20:15:30.316Z,59.40
2024-02-08T20:18:48.899Z,59.26
2024-02-08T20:22:08.683Z,59.29
2024-02-08T20:25:36.610Z,58.95
2024-02-08T20:28:59.182Z,58.74
2024-02-08T20:32:13.332Z,59.02
2024-02-08T20:35:25.423Z,59.57
2024-02-08T20:52:35.910Z,59.74
2024-02-08T21:05:53.418Z,59.97
2024-02-08T21:09:49.733Z,59.54
2024-02-08T21:14:28.984Z,60.05
2024-02-08T21:19:05.413Z,60.35
2024-02-08T21:23:57.002Z,59.74
2024-02-08T21:27:35.598Z,60.22
2024-02-08T21:30:47.251Z,60.07
2024-02-08T21:34:02.008Z,60.07
2024-02-08T21:37:11.864Z,60.01
2024-02-08T21:40:36.108Z,59.85
2024-02-08T21:43:49.829Z,59.90
2024-02-08T21:47:02.588Z,59.95
2024-02-08T21:50:15.024Z,59.59
2024-02-08T21:53:25.219Z,59.56
2024-02-08T21:56:40.641Z,59.95
2024-02-08T22:00:00.537Z,60.18
2024-02-08T22:03:16.391Z,60.09
2024-02-08T22:06:27.842Z,60.21
2024-02-08T22:09:49.230Z,59.67
2024-02-08T22:13:05.322Z,60.28
2024-02-08T22:16:20.870Z,60.33
2024-02-08T22:19:40.186Z,60.11
2024-02-08T22:22:54.641Z,60.33
2024-02-08T22:26:14.439Z,60.18
2024-02-08T22:29:34.046Z,60.75
2024-02-08T22:32:54.222Z,60.67
2024-02-08T22:36:10.503Z,61.54
2024-02-08T22:39:18.592Z,61.57
2024-02-08T22:42:28.011Z,61.52
2024-02-08T22:45:39.217Z,61.74
2024-02-08T22:48:47.745Z,61.53
2024-02-08T22:51:55.588Z,61.67
2024-02-08T22:55:05.203Z,61.46
2024-02-08T22:58:13.775Z,61.67
2024-02-08T23:01:35.866Z,61.81
2024-02-08T23:04:43.201Z,61.75
2024-02-08T23:07:52.726Z,61.41
2024-02-08T23:10:59.872Z,61.62
2024-02-08T23:14:10.764Z,62.39
2024-02-08T23:17:22.236Z,61.66
2024-02-08T23:20:32.081Z,61.54
2024-02-08T23:23:40.248Z,61.63
2024-02-08T23:26:48.509Z,61.13
2024-02-08T23:29:55.694Z,61.66
2024-02-08T23:33:10.348Z,62.09
2024-02-08T23:36:21.336Z,62.52
2024-02-08T23:39:31.809Z,62.31
2024-02-08T23:42:42.189Z,62.40
2024-02-08T23:45:50.870Z,62.72
2024-02-08T23:49:01.431Z,63.09
2024-02-08T23:52:13.689Z,63.13
2024-02-08T23:55:29.468Z,63.12
2024-02-08T23:58:52.851Z,63.03
